sensor_id;sensor_type;location;lat;lon;timestamp;P1;durP1;ratioP1;P2;durP2;ratioP2
24421;SDS011;12600;53.326;-6.298;2023-07-28T00:02:23;3.47;;;2.00;;
24421;SDS011;12600;53.326;-6.298;2023-07-28T00:05:12;2.70;;;1.70;;
24421;SDS011;12600;53.326;-6.298;2023-07-28T00:08:01;3.35;;;1.95;;
24421;SDS011;12600;53.326;-6.298;2023-07-28T00:10:51;3.72;;;1.63;;
24421;SDS011;12600;53.326;-6.298;2023-07-28T00:13:41;3.15;;;1.48;;
24421;SDS011;12600;53.326;-6.298;2023-07-28T00:16:33;4.00;;;1.75;;
24421;SDS011;12600;53.326;-6.298;2023-07-28T00:19:22;3.33;;;1.30;;
24421;SDS011;12600;53.326;-6.298;2023-07-28T00:22:12;3.42;;;1.30;;
24421;SDS011;12600;53.326;-6.298;2023-07-28T00:25:01;2.95;;;1.27;;
24421;SDS011;12600;53.326;-6.298;2023-07-28T00:27:51;3.28;;;1.35;;
24421;SDS011;12600;53.326;-6.298;2023-07-28T00:30:41;2.28;;;1.25;;
24421;SDS011;12600;53.326;-6.298;2023-07-28T00:33:31;3.88;;;1.40;;
24421;SDS011;12600;53.326;-6.298;2023-07-28T00:36:21;2.92;;;1.30;;
24421;SDS011;12600;53.326;-6.298;2023-07-28T00:39:12;2.47;;;1.35;;
24421;SDS011;12600;53.326;-6.298;2023-07-28T00:42:02;2.40;;;1.20;;
24421;SDS011;12600;53.326;-6.298;2023-07-28T00:44:51;2.33;;;1.10;;
24421;SDS011;12600;53.326;-6.298;2023-07-28T00:47:41;2.42;;;1.50;;
24421;SDS011;12600;53.326;-6.298;2023-07-28T00:50:32;2.53;;;1.30;;
24421;SDS011;12600;53.326;-6.298;2023-07-28T00:53:21;3.13;;;1.40;;
24421;SDS011;12600;53.326;-6.298;2023-07-28T00:56:13;2.58;;;1.30;;
24421;SDS011;12600;53.326;-6.298;2023-07-28T00:59:03;2.72;;;1.40;;
24421;SDS011;12600;53.326;-6.298;2023-07-28T01:01:53;6.03;;;1.30;;
24421;SDS011;12600;53.326;-6.298;2023-07-28T01:04:42;3.45;;;1.48;;
24421;SDS011;12600;53.326;-6.298;2023-07-28T01:07:35;3.65;;;1.48;;
24421;SDS011;12600;53.326;-6.298;2023-07-28T01:10:35;3.38;;;1.70;;
24421;SDS011;12600;53.326;-6.298;2023-07-28T01:13:26;6.53;;;1.70;;
24421;SDS011;12600;53.326;-6.298;2023-07-28T01:16:16;4.28;;;1.25;;
24421;SDS011;12600;53.326;-6.298;2023-07-28T01:19:06;3.08;;;1.40;;
24421;SDS011;12600;53.326;-6.298;2023-07-28T01:21:59;2.80;;;1.60;;
24421;SDS011;12600;53.326;-6.298;2023-07-28T01:25:13;3.47;;;1.58;;
24421;SDS011;12600;53.326;-6.298;2023-07-28T01:28:12;4.95;;;1.55;;
24421;SDS011;12600;53.326;-6.298;2023-07-28T01:31:02;3.85;;;1.70;;
24421;SDS011;12600;53.326;-6.298;2023-07-28T01:33:55;5.45;;;1.60;;
24421;SDS011;12600;53.326;-6.298;2023-07-28T01:36:45;3.90;;;1.60;;
24421;SDS011;12600;53.326;-6.298;2023-07-28T01:39:34;5.00;;;1.80;;
24421;SDS011;12600;53.326;-6.298;2023-07-28T01:42:23;3.83;;;2.03;;
24421;SDS011;12600;53.326;-6.298;2023-07-28T01:45:14;3.17;;;1.83;;
24421;SDS011;12600;53.326;-6.298;2023-07-28T01:48:04;4.63;;;1.92;;
24421;SDS011;12600;53.326;-6.298;2023-07-28T01:50:55;4.70;;;1.80;;
24421;SDS011;12600;53.326;-6.298;2023-07-28T01:53:45;6.13;;;1.90;;
24421;SDS011;12600;53.326;-6.298;2023-07-28T01:56:34;5.50;;;2.40;;
24421;SDS011;12600;53.326;-6.298;2023-07-28T01:59:24;4.60;;;2.00;;
24421;SDS011;12600;53.326;-6.298;2023-07-28T02:02:15;4.47;;;2.10;;
24421;SDS011;12600;53.326;-6.298;2023-07-28T02:05:04;6.57;;;2.22;;
24421;SDS011;12600;53.326;-6.298;2023-07-28T02:07:54;5.75;;;2.40;;
24421;SDS011;12600;53.326;-6.298;2023-07-28T02:10:44;5.95;;;2.67;;
24421;SDS011;12600;53.326;-6.298;2023-07-28T02:13:33;5.13;;;2.70;;
24421;SDS011;12600;53.326;-6.298;2023-07-28T02:16:24;6.60;;;2.13;;
24421;SDS011;12600;53.326;-6.298;2023-07-28T02:19:16;4.45;;;2.17;;
24421;SDS011;12600;53.326;-6.298;2023-07-28T02:22:05;3.38;;;2.03;;
24421;SDS011;12600;53.326;-6.298;2023-07-28T02:24:55;6.22;;;1.90;;
24421;SDS011;12600;53.326;-6.298;2023-07-28T02:27:50;4.00;;;1.77;;
24421;SDS011;12600;53.326;-6.298;2023-07-28T02:30:39;5.43;;;2.00;;
24421;SDS011;12600;53.326;-6.298;2023-07-28T02:33:29;6.13;;;1.80;;
24421;SDS011;12600;53.326;-6.298;2023-07-28T02:36:24;5.47;;;1.95;;
24421;SDS011;12600;53.326;-6.298;2023-07-28T02:39:13;7.20;;;1.75;;
24421;SDS011;12600;53.326;-6.298;2023-07-28T02:42:02;4.18;;;1.80;;
24421;SDS011;12600;53.326;-6.298;2023-07-28T02:44:53;3.85;;;1.90;;
24421;SDS011;12600;53.326;-6.298;2023-07-28T02:47:42;5.60;;;1.85;;
24421;SDS011;12600;53.326;-6.298;2023-07-28T02:50:32;6.60;;;1.88;;
24421;SDS011;12600;53.326;-6.298;2023-07-28T02:53:23;5.47;;;2.28;;
24421;SDS011;12600;53.326;-6.298;2023-07-28T02:56:12;7.25;;;1.92;;
24421;SDS011;12600;53.326;-6.298;2023-07-28T02:59:02;7.22;;;1.90;;
24421;SDS011;12600;53.326;-6.298;2023-07-28T03:01:51;7.22;;;1.80;;
24421;SDS011;12600;53.326;-6.298;2023-07-28T03:04:41;5.38;;;1.95;;
24421;SDS011;12600;53.326;-6.298;2023-07-28T03:07:36;5.35;;;2.20;;
24421;SDS011;12600;53.326;-6.298;2023-07-28T03:10:29;6.00;;;1.88;;
24421;SDS011;12600;53.326;-6.298;2023-07-28T03:13:18;6.55;;;2.08;;
24421;SDS011;12600;53.326;-6.298;2023-07-28T03:16:07;4.53;;;2.03;;
24421;SDS011;12600;53.326;-6.298;2023-07-28T03:18:57;5.00;;;2.17;;
24421;SDS011;12600;53.326;-6.298;2023-07-28T03:21:47;6.75;;;2.10;;
24421;SDS011;12600;53.326;-6.298;2023-07-28T03:24:37;7.50;;;2.10;;
24421;SDS011;12600;53.326;-6.298;2023-07-28T03:27:28;3.78;;;1.85;;
24421;SDS011;12600;53.326;-6.298;2023-07-28T03:30:17;4.93;;;2.03;;
24421;SDS011;12600;53.326;-6.298;2023-07-28T03:33:06;5.05;;;2.00;;
24421;SDS011;12600;53.326;-6.298;2023-07-28T03:35:56;4.07;;;1.80;;
24421;SDS011;12600;53.326;-6.298;2023-07-28T03:38:46;8.43;;;2.08;;
24421;SDS011;12600;53.326;-6.298;2023-07-28T03:41:35;6.53;;;1.80;;
24421;SDS011;12600;53.326;-6.298;2023-07-28T03:44:26;5.97;;;2.03;;
24421;SDS011;12600;53.326;-6.298;2023-07-28T03:47:15;5.28;;;1.90;;
24421;SDS011;12600;53.326;-6.298;2023-07-28T03:50:05;7.43;;;2.10;;
24421;SDS011;12600;53.326;-6.298;2023-07-28T03:52:55;6.95;;;2.08;;
24421;SDS011;12600;53.326;-6.298;2023-07-28T03:55:44;4.93;;;1.60;;
24421;SDS011;12600;53.326;-6.298;2023-07-28T03:58:33;6.90;;;2.05;;
24421;SDS011;12600;53.326;-6.298;2023-07-28T04:01:24;5.50;;;1.95;;
24421;SDS011;12600;53.326;-6.298;2023-07-28T04:04:14;10.27;;;3.08;;
24421;SDS011;12600;53.326;-6.298;2023-07-28T04:07:04;12.75;;;5.78;;
24421;SDS011;12600;53.326;-6.298;2023-07-28T04:09:54;12.13;;;5.50;;
24421;SDS011;12600;53.326;-6.298;2023-07-28T04:12:43;16.58;;;6.25;;
24421;SDS011;12600;53.326;-6.298;2023-07-28T04:15:32;11.60;;;6.22;;
24421;SDS011;12600;53.326;-6.298;2023-07-28T04:18:23;12.75;;;6.15;;
24421;SDS011;12600;53.326;-6.298;2023-07-28T04:21:12;8.57;;;4.15;;
24421;SDS011;12600;53.326;-6.298;2023-07-28T04:24:02;8.00;;;3.38;;
24421;SDS011;12600;53.326;-6.298;2023-07-28T04:26:51;9.25;;;3.03;;
24421;SDS011;12600;53.326;-6.298;2023-07-28T04:29:41;7.80;;;2.45;;
24421;SDS011;12600;53.326;-6.298;2023-07-28T04:32:32;4.90;;;2.00;;
24421;SDS011;12600;53.326;-6.298;2023-07-28T04:35:31;3.58;;;2.00;;
24421;SDS011;12600;53.326;-6.298;2023-07-28T04:38:34;3.58;;;1.60;;
24421;SDS011;12600;53.326;-6.298;2023-07-28T04:41:24;2.88;;;1.60;;
24421;SDS011;12600;53.326;-6.298;2023-07-28T04:44:14;4.78;;;1.75;;
24421;SDS011;12600;53.326;-6.298;2023-07-28T04:47:06;3.50;;;1.73;;
24421;SDS011;12600;53.326;-6.298;2023-07-28T04:49:55;3.22;;;1.90;;
24421;SDS011;12600;53.326;-6.298;2023-07-28T04:53:04;4.40;;;2.20;;
24421;SDS011;12600;53.326;-6.298;2023-07-28T04:56:29;6.25;;;2.15;;
24421;SDS011;12600;53.326;-6.298;2023-07-28T04:59:18;6.15;;;2.42;;
24421;SDS011;12600;53.326;-6.298;2023-07-28T05:02:08;5.03;;;2.42;;
24421;SDS011;12600;53.326;-6.298;2023-07-28T05:04:57;7.47;;;3.20;;
24421;SDS011;12600;53.326;-6.298;2023-07-28T05:07:46;6.57;;;3.38;;
24421;SDS011;12600;53.326;-6.298;2023-07-28T05:10:37;7.93;;;3.20;;
24421;SDS011;12600;53.326;-6.298;2023-07-28T05:13:27;7.20;;;2.75;;
24421;SDS011;12600;53.326;-6.298;2023-07-28T05:16:16;6.05;;;2.95;;
24421;SDS011;12600;53.326;-6.298;2023-07-28T05:19:24;5.78;;;2.38;;
24421;SDS011;12600;53.326;-6.298;2023-07-28T05:22:16;9.32;;;2.47;;
24421;SDS011;12600;53.326;-6.298;2023-07-28T05:25:10;6.50;;;2.88;;
24421;SDS011;12600;53.326;-6.298;2023-07-28T05:28:04;5.40;;;2.10;;
24421;SDS011;12600;53.326;-6.298;2023-07-28T05:31:03;10.20;;;2.83;;
24421;SDS011;12600;53.326;-6.298;2023-07-28T05:33:53;7.50;;;2.38;;
24421;SDS011;12600;53.326;-6.298;2023-07-28T05:36:43;9.35;;;2.45;;
24421;SDS011;12600;53.326;-6.298;2023-07-28T05:39:32;6.93;;;2.38;;
24421;SDS011;12600;53.326;-6.298;2023-07-28T05:42:22;6.13;;;2.50;;
24421;SDS011;12600;53.326;-6.298;2023-07-28T05:45:13;7.03;;;3.05;;
24421;SDS011;12600;53.326;-6.298;2023-07-28T05:48:03;6.18;;;2.88;;
24421;SDS011;12600;53.326;-6.298;2023-07-28T05:50:53;8.30;;;3.28;;
24421;SDS011;12600;53.326;-6.298;2023-07-28T05:53:43;9.27;;;2.80;;
24421;SDS011;12600;53.326;-6.298;2023-07-28T05:56:32;8.00;;;2.70;;
24421;SDS011;12600;53.326;-6.298;2023-07-28T05:59:22;5.70;;;1.90;;
24421;SDS011;12600;53.326;-6.298;2023-07-28T06:02:12;6.95;;;2.10;;
24421;SDS011;12600;53.326;-6.298;2023-07-28T06:05:10;6.88;;;2.00;;
24421;SDS011;12600;53.326;-6.298;2023-07-28T06:07:59;3.38;;;1.80;;
24421;SDS011;12600;53.326;-6.298;2023-07-28T06:10:49;6.72;;;1.83;;
24421;SDS011;12600;53.326;-6.298;2023-07-28T06:13:39;6.45;;;2.28;;
24421;SDS011;12600;53.326;-6.298;2023-07-28T06:16:28;3.90;;;1.80;;
24421;SDS011;12600;53.326;-6.298;2023-07-28T06:19:19;3.72;;;1.70;;
24421;SDS011;12600;53.326;-6.298;2023-07-28T06:22:12;6.28;;;1.85;;
24421;SDS011;12600;53.326;-6.298;2023-07-28T06:25:04;3.95;;;1.65;;
24421;SDS011;12600;53.326;-6.298;2023-07-28T06:27:58;5.18;;;1.90;;
24421;SDS011;12600;53.326;-6.298;2023-07-28T06:30:52;5.35;;;2.05;;
24421;SDS011;12600;53.326;-6.298;2023-07-28T06:33:44;5.30;;;2.17;;
24421;SDS011;12600;53.326;-6.298;2023-07-28T06:36:34;8.57;;;1.90;;
24421;SDS011;12600;53.326;-6.298;2023-07-28T06:39:24;3.53;;;1.80;;
24421;SDS011;12600;53.326;-6.298;2023-07-28T06:42:14;5.35;;;1.60;;
24421;SDS011;12600;53.326;-6.298;2023-07-28T06:45:12;4.65;;;1.80;;
24421;SDS011;12600;53.326;-6.298;2023-07-28T06:48:03;4.80;;;1.77;;
24421;SDS011;12600;53.326;-6.298;2023-07-28T06:50:53;5.50;;;1.83;;
24421;SDS011;12600;53.326;-6.298;2023-07-28T06:53:44;3.97;;;1.70;;
24421;SDS011;12600;53.326;-6.298;2023-07-28T06:56:33;7.22;;;2.60;;
24421;SDS011;12600;53.326;-6.298;2023-07-28T06:59:24;4.35;;;1.73;;
24421;SDS011;12600;53.326;-6.298;2023-07-28T07:02:14;7.28;;;1.95;;
24421;SDS011;12600;53.326;-6.298;2023-07-28T07:05:04;4.65;;;1.60;;
24421;SDS011;12600;53.326;-6.298;2023-07-28T07:07:55;8.98;;;3.75;;
24421;SDS011;12600;53.326;-6.298;2023-07-28T07:10:48;3.38;;;1.70;;
24421;SDS011;12600;53.326;-6.298;2023-07-28T07:13:38;5.55;;;1.63;;
24421;SDS011;12600;53.326;-6.298;2023-07-28T07:16:28;5.28;;;1.75;;
24421;SDS011;12600;53.326;-6.298;2023-07-28T07:19:17;3.65;;;1.50;;
24421;SDS011;12600;53.326;-6.298;2023-07-28T07:22:06;4.28;;;1.60;;
24421;SDS011;12600;53.326;-6.298;2023-07-28T07:24:56;3.85;;;1.60;;
24421;SDS011;12600;53.326;-6.298;2023-07-28T07:27:47;6.15;;;2.95;;
24421;SDS011;12600;53.326;-6.298;2023-07-28T07:30:36;3.72;;;1.50;;
24421;SDS011;12600;53.326;-6.298;2023-07-28T07:33:27;6.43;;;1.80;;
24421;SDS011;12600;53.326;-6.298;2023-07-28T07:36:16;4.00;;;1.50;;
24421;SDS011;12600;53.326;-6.298;2023-07-28T07:39:07;3.20;;;1.75;;
24421;SDS011;12600;53.326;-6.298;2023-07-28T07:41:57;3.35;;;1.30;;
24421;SDS011;12600;53.326;-6.298;2023-07-28T07:44:48;5.03;;;1.50;;
24421;SDS011;12600;53.326;-6.298;2023-07-28T07:47:38;3.38;;;1.27;;
24421;SDS011;12600;53.326;-6.298;2023-07-28T07:50:28;5.78;;;1.35;;
24421;SDS011;12600;53.326;-6.298;2023-07-28T07:53:17;3.42;;;1.30;;
24421;SDS011;12600;53.326;-6.298;2023-07-28T07:56:07;2.45;;;1.10;;
24421;SDS011;12600;53.326;-6.298;2023-07-28T07:58:57;3.20;;;1.17;;
24421;SDS011;12600;53.326;-6.298;2023-07-28T08:01:48;3.70;;;1.10;;
24421;SDS011;12600;53.326;-6.298;2023-07-28T08:04:37;3.22;;;1.30;;
24421;SDS011;12600;53.326;-6.298;2023-07-28T08:07:27;5.03;;;1.30;;
24421;SDS011;12600;53.326;-6.298;2023-07-28T08:10:16;5.15;;;1.25;;
24421;SDS011;12600;53.326;-6.298;2023-07-28T08:13:06;4.82;;;1.50;;
24421;SDS011;12600;53.326;-6.298;2023-07-28T08:15:55;5.25;;;2.42;;
24421;SDS011;12600;53.326;-6.298;2023-07-28T08:18:46;4.57;;;1.35;;
24421;SDS011;12600;53.326;-6.298;2023-07-28T08:21:35;3.38;;;1.05;;
24421;SDS011;12600;53.326;-6.298;2023-07-28T08:24:25;3.88;;;1.10;;
24421;SDS011;12600;53.326;-6.298;2023-07-28T08:27:15;3.00;;;1.17;;
24421;SDS011;12600;53.326;-6.298;2023-07-28T08:30:05;3.47;;;1.10;;
24421;SDS011;12600;53.326;-6.298;2023-07-28T08:32:55;1.92;;;1.10;;
24421;SDS011;12600;53.326;-6.298;2023-07-28T08:35:46;6.30;;;1.45;;
24421;SDS011;12600;53.326;-6.298;2023-07-28T08:38:36;5.10;;;1.33;;
24421;SDS011;12600;53.326;-6.298;2023-07-28T08:41:25;2.38;;;1.15;;
24421;SDS011;12600;53.326;-6.298;2023-07-28T08:44:15;3.35;;;1.25;;
24421;SDS011;12600;53.326;-6.298;2023-07-28T08:47:04;3.13;;;0.95;;
24421;SDS011;12600;53.326;-6.298;2023-07-28T08:49:54;3.88;;;1.30;;
24421;SDS011;12600;53.326;-6.298;2023-07-28T08:52:45;3.38;;;1.30;;
24421;SDS011;12600;53.326;-6.298;2023-07-28T08:55:36;3.33;;;1.00;;
24421;SDS011;12600;53.326;-6.298;2023-07-28T08:58:25;3.10;;;1.15;;
24421;SDS011;12600;53.326;-6.298;2023-07-28T09:01:15;3.40;;;1.20;;
24421;SDS011;12600;53.326;-6.298;2023-07-28T09:04:06;2.25;;;1.00;;
24421;SDS011;12600;53.326;-6.298;2023-07-28T09:06:59;2.47;;;1.00;;
24421;SDS011;12600;53.326;-6.298;2023-07-28T09:09:59;3.60;;;1.05;;
24421;SDS011;12600;53.326;-6.298;2023-07-28T09:12:50;2.67;;;1.00;;
24421;SDS011;12600;53.326;-6.298;2023-07-28T09:15:39;4.18;;;0.95;;
24421;SDS011;12600;53.326;-6.298;2023-07-28T09:18:29;2.47;;;1.00;;
24421;SDS011;12600;53.326;-6.298;2023-07-28T09:21:19;2.33;;;0.82;;
24421;SDS011;12600;53.326;-6.298;2023-07-28T09:24:10;2.20;;;0.75;;
24421;SDS011;12600;53.326;-6.298;2023-07-28T09:27:01;2.22;;;0.75;;
24421;SDS011;12600;53.326;-6.298;2023-07-28T09:29:51;2.22;;;0.80;;
24421;SDS011;12600;53.326;-6.298;2023-07-28T09:32:46;1.42;;;0.80;;
24421;SDS011;12600;53.326;-6.298;2023-07-28T09:35:41;2.90;;;0.90;;
24421;SDS011;12600;53.326;-6.298;2023-07-28T09:38:37;2.50;;;1.02;;
24421;SDS011;12600;53.326;-6.298;2023-07-28T09:41:29;2.47;;;1.00;;
24421;SDS011;12600;53.326;-6.298;2023-07-28T09:44:20;2.35;;;1.10;;
24421;SDS011;12600;53.326;-6.298;2023-07-28T09:47:10;4.85;;;1.20;;
24421;SDS011;12600;53.326;-6.298;2023-07-28T09:49:59;3.92;;;1.10;;
24421;SDS011;12600;53.326;-6.298;2023-07-28T09:52:53;2.93;;;1.30;;
24421;SDS011;12600;53.326;-6.298;2023-07-28T09:55:45;3.53;;;1.10;;
24421;SDS011;12600;53.326;-6.298;2023-07-28T09:58:37;3.28;;;1.40;;
24421;SDS011;12600;53.326;-6.298;2023-07-28T10:01:31;2.97;;;1.30;;
24421;SDS011;12600;53.326;-6.298;2023-07-28T10:04:22;2.63;;;1.50;;
24421;SDS011;12600;53.326;-6.298;2023-07-28T10:07:11;2.58;;;1.10;;
24421;SDS011;12600;53.326;-6.298;2023-07-28T10:10:01;3.40;;;1.20;;
24421;SDS011;12600;53.326;-6.298;2023-07-28T10:12:54;2.30;;;1.17;;
24421;SDS011;12600;53.326;-6.298;2023-07-28T10:15:48;2.90;;;1.10;;
24421;SDS011;12600;53.326;-6.298;2023-07-28T10:18:39;3.25;;;1.20;;
24421;SDS011;12600;53.326;-6.298;2023-07-28T10:21:29;1.42;;;0.82;;
24421;SDS011;12600;53.326;-6.298;2023-07-28T10:24:19;2.80;;;1.02;;
24421;SDS011;12600;53.326;-6.298;2023-07-28T10:27:32;2.00;;;1.00;;
24421;SDS011;12600;53.326;-6.298;2023-07-28T10:30:28;2.45;;;1.05;;
24421;SDS011;12600;53.326;-6.298;2023-07-28T10:33:27;1.60;;;0.90;;
24421;SDS011;12600;53.326;-6.298;2023-07-28T10:36:33;2.33;;;1.00;;
24421;SDS011;12600;53.326;-6.298;2023-07-28T10:39:23;2.35;;;1.10;;
24421;SDS011;12600;53.326;-6.298;2023-07-28T10:42:12;2.53;;;1.10;;
24421;SDS011;12600;53.326;-6.298;2023-07-28T10:45:02;2.08;;;1.20;;
24421;SDS011;12600;53.326;-6.298;2023-07-28T10:47:52;2.00;;;1.02;;
24421;SDS011;12600;53.326;-6.298;2023-07-28T10:50:43;2.13;;;0.90;;
24421;SDS011;12600;53.326;-6.298;2023-07-28T10:53:33;1.77;;;0.90;;
24421;SDS011;12600;53.326;-6.298;2023-07-28T10:56:23;1.63;;;0.80;;
24421;SDS011;12600;53.326;-6.298;2023-07-28T10:59:13;2.03;;;1.00;;
24421;SDS011;12600;53.326;-6.298;2023-07-28T11:02:03;2.25;;;0.80;;
24421;SDS011;12600;53.326;-6.298;2023-07-28T11:04:53;1.92;;;0.73;;
24421;SDS011;12600;53.326;-6.298;2023-07-28T11:07:42;1.20;;;0.60;;
24421;SDS011;12600;53.326;-6.298;2023-07-28T11:10:34;2.08;;;0.85;;
24421;SDS011;12600;53.326;-6.298;2023-07-28T11:13:23;1.77;;;0.60;;
24421;SDS011;12600;53.326;-6.298;2023-07-28T11:16:26;2.05;;;1.20;;
24421;SDS011;12600;53.326;-6.298;2023-07-28T11:19:16;3.50;;;0.70;;
24421;SDS011;12600;53.326;-6.298;2023-07-28T11:22:16;1.10;;;0.52;;
24421;SDS011;12600;53.326;-6.298;2023-07-28T11:25:05;1.52;;;0.73;;
24421;SDS011;12600;53.326;-6.298;2023-07-28T11:27:58;1.55;;;0.60;;
24421;SDS011;12600;53.326;-6.298;2023-07-28T11:30:53;8.15;;;4.63;;
24421;SDS011;12600;53.326;-6.298;2023-07-28T11:33:42;1.52;;;0.75;;
24421;SDS011;12600;53.326;-6.298;2023-07-28T11:36:31;0.82;;;0.50;;
24421;SDS011;12600;53.326;-6.298;2023-07-28T11:39:21;1.95;;;0.80;;
24421;SDS011;12600;53.326;-6.298;2023-07-28T11:42:12;3.58;;;0.82;;
24421;SDS011;12600;53.326;-6.298;2023-07-28T11:45:04;2.17;;;0.90;;
24421;SDS011;12600;53.326;-6.298;2023-07-28T11:47:57;1.95;;;0.82;;
24421;SDS011;12600;53.326;-6.298;2023-07-28T11:50:49;1.88;;;0.80;;
24421;SDS011;12600;53.326;-6.298;2023-07-28T11:53:40;3.83;;;0.95;;
24421;SDS011;12600;53.326;-6.298;2023-07-28T11:56:30;2.85;;;1.10;;
24421;SDS011;12600;53.326;-6.298;2023-07-28T11:59:20;3.22;;;0.93;;
24421;SDS011;12600;53.326;-6.298;2023-07-28T12:02:11;1.92;;;1.00;;
24421;SDS011;12600;53.326;-6.298;2023-07-28T12:05:11;2.50;;;0.85;;
24421;SDS011;12600;53.326;-6.298;2023-07-28T12:08:07;2.53;;;0.90;;
24421;SDS011;12600;53.326;-6.298;2023-07-28T12:10:56;4.50;;;1.50;;
24421;SDS011;12600;53.326;-6.298;2023-07-28T12:13:49;3.05;;;1.02;;
24421;SDS011;12600;53.326;-6.298;2023-07-28T12:16:47;1.55;;;0.90;;
24421;SDS011;12600;53.326;-6.298;2023-07-28T12:19:44;1.92;;;0.82;;
24421;SDS011;12600;53.326;-6.298;2023-07-28T12:22:47;2.65;;;1.10;;
24421;SDS011;12600;53.326;-6.298;2023-07-28T12:25:37;2.00;;;0.98;;
24421;SDS011;12600;53.326;-6.298;2023-07-28T12:28:26;2.25;;;1.00;;
24421;SDS011;12600;53.326;-6.298;2023-07-28T12:31:16;2.45;;;1.20;;
24421;SDS011;12600;53.326;-6.298;2023-07-28T12:34:05;2.58;;;1.20;;
24421;SDS011;12600;53.326;-6.298;2023-07-28T12:36:56;2.28;;;1.17;;
24421;SDS011;12600;53.326;-6.298;2023-07-28T12:39:46;2.90;;;1.17;;
24421;SDS011;12600;53.326;-6.298;2023-07-28T12:42:39;3.13;;;1.40;;
24421;SDS011;12600;53.326;-6.298;2023-07-28T12:45:31;2.10;;;1.30;;
24421;SDS011;12600;53.326;-6.298;2023-07-28T12:48:23;2.83;;;1.30;;
24421;SDS011;12600;53.326;-6.298;2023-07-28T12:51:13;3.67;;;1.55;;
24421;SDS011;12600;53.326;-6.298;2023-07-28T12:54:18;4.13;;;1.70;;
24421;SDS011;12600;53.326;-6.298;2023-07-28T12:57:09;2.88;;;1.55;;
24421;SDS011;12600;53.326;-6.298;2023-07-28T13:00:00;2.30;;;1.50;;
24421;SDS011;12600;53.326;-6.298;2023-07-28T13:02:57;2.75;;;1.58;;
24421;SDS011;12600;53.326;-6.298;2023-07-28T13:05:46;4.47;;;1.50;;
24421;SDS011;12600;53.326;-6.298;2023-07-28T13:08:36;3.25;;;1.73;;
24421;SDS011;12600;53.326;-6.298;2023-07-28T13:11:29;3.17;;;1.60;;
24421;SDS011;12600;53.326;-6.298;2023-07-28T13:14:21;3.92;;;2.20;;
24421;SDS011;12600;53.326;-6.298;2023-07-28T13:17:11;3.80;;;1.73;;
24421;SDS011;12600;53.326;-6.298;2023-07-28T13:20:01;4.45;;;2.00;;
24421;SDS011;12600;53.326;-6.298;2023-07-28T13:22:51;5.20;;;1.90;;
24421;SDS011;12600;53.326;-6.298;2023-07-28T13:25:41;3.03;;;1.67;;
24421;SDS011;12600;53.326;-6.298;2023-07-28T13:28:31;5.50;;;1.75;;
24421;SDS011;12600;53.326;-6.298;2023-07-28T13:31:21;3.05;;;1.50;;
24421;SDS011;12600;53.326;-6.298;2023-07-28T13:34:11;3.72;;;1.48;;
24421;SDS011;12600;53.326;-6.298;2023-07-28T13:37:00;2.33;;;1.25;;
24421;SDS011;12600;53.326;-6.298;2023-07-28T13:39:50;3.17;;;1.20;;
24421;SDS011;12600;53.326;-6.298;2023-07-28T13:42:39;3.40;;;1.70;;
24421;SDS011;12600;53.326;-6.298;2023-07-28T13:45:30;3.50;;;1.67;;
24421;SDS011;12600;53.326;-6.298;2023-07-28T13:48:20;2.97;;;1.50;;
24421;SDS011;12600;53.326;-6.298;2023-07-28T13:51:12;3.75;;;1.42;;
24421;SDS011;12600;53.326;-6.298;2023-07-28T13:54:05;2.67;;;1.10;;
24421;SDS011;12600;53.326;-6.298;2023-07-28T13:56:58;2.53;;;0.90;;
24421;SDS011;12600;53.326;-6.298;2023-07-28T13:59:47;2.78;;;1.73;;
24421;SDS011;12600;53.326;-6.298;2023-07-28T14:02:38;4.70;;;1.67;;
24421;SDS011;12600;53.326;-6.298;2023-07-28T14:05:29;3.13;;;1.50;;
24421;SDS011;12600;53.326;-6.298;2023-07-28T14:08:18;3.40;;;1.42;;
24421;SDS011;12600;53.326;-6.298;2023-07-28T14:11:08;3.38;;;1.70;;
24421;SDS011;12600;53.326;-6.298;2023-07-28T14:13:57;2.90;;;1.60;;
24421;SDS011;12600;53.326;-6.298;2023-07-28T14:16:47;4.80;;;1.60;;
24421;SDS011;12600;53.326;-6.298;2023-07-28T14:19:38;4.35;;;2.30;;
24421;SDS011;12600;53.326;-6.298;2023-07-28T14:22:28;4.75;;;2.00;;
24421;SDS011;12600;53.326;-6.298;2023-07-28T14:25:18;3.60;;;1.88;;
24421;SDS011;12600;53.326;-6.298;2023-07-28T14:28:07;5.07;;;2.10;;
24421;SDS011;12600;53.326;-6.298;2023-07-28T14:30:56;4.18;;;2.00;;
24421;SDS011;12600;53.326;-6.298;2023-07-28T14:33:45;4.53;;;1.90;;
24421;SDS011;12600;53.326;-6.298;2023-07-28T14:36:36;7.97;;;2.42;;
24421;SDS011;12600;53.326;-6.298;2023-07-28T14:39:26;4.05;;;2.10;;
24421;SDS011;12600;53.326;-6.298;2023-07-28T14:42:15;5.88;;;2.53;;
24421;SDS011;12600;53.326;-6.298;2023-07-28T14:45:06;3.13;;;2.10;;
24421;SDS011;12600;53.326;-6.298;2023-07-28T14:47:56;4.90;;;1.92;;
24421;SDS011;12600;53.326;-6.298;2023-07-28T14:50:45;4.35;;;2.03;;
24421;SDS011;12600;53.326;-6.298;2023-07-28T14:53:37;3.95;;;2.00;;
24421;SDS011;12600;53.326;-6.298;2023-07-28T14:56:28;2.72;;;1.50;;
24421;SDS011;12600;53.326;-6.298;2023-07-28T14:59:17;3.40;;;1.80;;
24421;SDS011;12600;53.326;-6.298;2023-07-28T15:02:07;4.72;;;2.00;;
24421;SDS011;12600;53.326;-6.298;2023-07-28T15:04:58;5.05;;;2.40;;
24421;SDS011;12600;53.326;-6.298;2023-07-28T15:07:48;4.55;;;2.05;;
24421;SDS011;12600;53.326;-6.298;2023-07-28T15:10:38;3.40;;;1.80;;
24421;SDS011;12600;53.326;-6.298;2023-07-28T15:13:28;3.67;;;1.95;;
24421;SDS011;12600;53.326;-6.298;2023-07-28T15:16:17;3.33;;;1.90;;
24421;SDS011;12600;53.326;-6.298;2023-07-28T15:19:07;4.78;;;2.20;;
24421;SDS011;12600;53.326;-6.298;2023-07-28T15:21:56;3.47;;;1.90;;
24421;SDS011;12600;53.326;-6.298;2023-07-28T15:24:45;5.38;;;1.88;;
24421;SDS011;12600;53.326;-6.298;2023-07-28T15:27:36;2.70;;;1.63;;
24421;SDS011;12600;53.326;-6.298;2023-07-28T15:30:25;5.03;;;1.98;;
24421;SDS011;12600;53.326;-6.298;2023-07-28T15:33:17;4.15;;;2.00;;
24421;SDS011;12600;53.326;-6.298;2023-07-28T15:36:07;4.45;;;1.92;;
24421;SDS011;12600;53.326;-6.298;2023-07-28T15:38:56;4.30;;;1.73;;
24421;SDS011;12600;53.326;-6.298;2023-07-28T15:41:46;5.80;;;1.88;;
24421;SDS011;12600;53.326;-6.298;2023-07-28T15:44:37;2.88;;;1.85;;
24421;SDS011;12600;53.326;-6.298;2023-07-28T15:47:26;3.53;;;2.00;;
24421;SDS011;12600;53.326;-6.298;2023-07-28T15:50:19;3.97;;;1.60;;
24421;SDS011;12600;53.326;-6.298;2023-07-28T15:53:09;4.18;;;1.83;;
24421;SDS011;12600;53.326;-6.298;2023-07-28T15:55:58;3.88;;;1.67;;
24421;SDS011;12600;53.326;-6.298;2023-07-28T15:58:48;3.63;;;1.90;;
24421;SDS011;12600;53.326;-6.298;2023-07-28T16:01:38;4.88;;;2.20;;
24421;SDS011;12600;53.326;-6.298;2023-07-28T16:04:28;8.02;;;2.17;;
24421;SDS011;12600;53.326;-6.298;2023-07-28T16:07:17;5.25;;;2.05;;
24421;SDS011;12600;53.326;-6.298;2023-07-28T16:10:09;5.78;;;2.03;;
24421;SDS011;12600;53.326;-6.298;2023-07-28T16:12:59;4.75;;;2.08;;
24421;SDS011;12600;53.326;-6.298;2023-07-28T16:15:48;4.43;;;2.08;;
24421;SDS011;12600;53.326;-6.298;2023-07-28T16:18:39;5.10;;;2.50;;
24421;SDS011;12600;53.326;-6.298;2023-07-28T16:21:29;5.90;;;2.25;;
24421;SDS011;12600;53.326;-6.298;2023-07-28T16:24:18;4.85;;;2.60;;
24421;SDS011;12600;53.326;-6.298;2023-07-28T16:27:07;4.45;;;2.40;;
24421;SDS011;12600;53.326;-6.298;2023-07-28T16:29:57;9.30;;;2.50;;
24421;SDS011;12600;53.326;-6.298;2023-07-28T16:32:46;8.43;;;2.80;;
24421;SDS011;12600;53.326;-6.298;2023-07-28T16:35:37;5.55;;;2.50;;
24421;SDS011;12600;53.326;-6.298;2023-07-28T16:38:26;8.73;;;2.88;;
24421;SDS011;12600;53.326;-6.298;2023-07-28T16:41:16;8.70;;;2.80;;
24421;SDS011;12600;53.326;-6.298;2023-07-28T16:44:05;5.88;;;2.58;;
24421;SDS011;12600;53.326;-6.298;2023-07-28T16:46:54;7.45;;;2.40;;
24421;SDS011;12600;53.326;-6.298;2023-07-28T16:49:47;6.88;;;2.70;;
24421;SDS011;12600;53.326;-6.298;2023-07-28T16:52:40;5.97;;;2.50;;
24421;SDS011;12600;53.326;-6.298;2023-07-28T16:55:29;7.72;;;2.50;;